»·PEaware :: UAL1900 KSFO-KSAN

UAL1900 :: KSFO-KSAN

FLIGHT INFORMATION

Flight Status: Arrived
Operator:
United Airlines
More flights by this operator :: More flights under this callsign
Pilot: Saso K. (7898)
Aircraft: BOEING 737-300
(B733)
More flights by this aircraft type
Origin: KSFO San Francisco Intl
United States
Destination: KSAN San Diego Intl-Lindbergh
United States
More flights between these airports :: More routes between these airports
Route: +OFFSH1 MCKEY LAX BAYVU5
File this flight plan on PilotEdge
Remarks:
Altitude:
(Current/Filed)
37,000ft
Speed:
(Current/Filed)
421kts
Departed: 22-Dec-16 04:51 PM
Arrived: 22-Dec-16 06:06 PM
Distance/Time
Traveled:
387nm/1:15
Distance/Time
To Go:
Arrived

Flight Plot

Page will automatically refresh every two minutes.


Map Options




Map Legend


Flown Route
Filed Route
Departure Airport
Arrival Airport
Navaid (VOR, NDB)
Fix

Horizontal Profiles

Position Reports

Time Latitude Longitude Heading Altitude Ground
Speed
22-Dec-16 16:01 37.618640 -122.388046 158 30ft 0kts
22-Dec-16 16:02 37.618640 -122.388046 158 30ft 0kts
22-Dec-16 16:03 37.618640 -122.388046 158 30ft 0kts
22-Dec-16 16:04 37.618640 -122.388046 158 30ft 0kts
22-Dec-16 16:05 37.618640 -122.388046 158 30ft 0kts
22-Dec-16 16:06 37.618640 -122.388046 158 30ft 0kts
22-Dec-16 16:07 37.618640 -122.388046 158 30ft 0kts
22-Dec-16 16:08 37.618640 -122.388046 158 30ft 0kts
22-Dec-16 16:09 37.618640 -122.388046 158 30ft 0kts
22-Dec-16 16:10 37.618640 -122.388046 158 30ft 0kts
22-Dec-16 16:11 37.618640 -122.388046 158 30ft 0kts
22-Dec-16 16:12 37.618640 -122.388046 158 30ft 0kts
22-Dec-16 16:13 37.618640 -122.388046 158 30ft 0kts
22-Dec-16 16:14 37.618640 -122.388046 158 30ft 0kts
22-Dec-16 16:15 37.618640 -122.388046 158 30ft 0kts
22-Dec-16 16:16 37.618640 -122.388046 158 30ft 0kts
22-Dec-16 16:17 37.618640 -122.388046 158 30ft 0kts
22-Dec-16 16:18 37.618640 -122.388046 158 30ft 0kts
22-Dec-16 16:19 37.618640 -122.388046 158 30ft 0kts
22-Dec-16 16:20 37.618640 -122.388046 158 30ft 0kts
22-Dec-16 16:21 37.618640 -122.388046 158 30ft 0kts
22-Dec-16 16:22 37.618640 -122.388046 158 30ft 0kts
22-Dec-16 16:23 37.618640 -122.388046 158 30ft 0kts
22-Dec-16 16:24 37.618640 -122.388046 158 30ft 0kts
22-Dec-16 16:25 37.618640 -122.388046 158 30ft 0kts
22-Dec-16 16:26 37.618640 -122.388046 158 30ft 0kts
22-Dec-16 16:27 37.618640 -122.388046 158 30ft 0kts
22-Dec-16 16:28 37.618640 -122.388046 158 30ft 0kts
22-Dec-16 16:29 37.618640 -122.388046 158 30ft 0kts
22-Dec-16 16:30 37.618640 -122.388046 158 30ft 0kts
22-Dec-16 16:31 37.618863 -122.388165 136 30ft 1kts
22-Dec-16 16:32 37.619125 -122.388891 114 30ft 2kts
22-Dec-16 16:33 37.619181 -122.389388 13 30ft 1kts
22-Dec-16 16:34 37.619487 -122.389929 296 30ft 2kts
22-Dec-16 16:35 37.619688 -122.390431 296 30ft 0kts
22-Dec-16 16:36 37.619688 -122.390431 296 30ft 0kts
22-Dec-16 16:37 37.620243 -122.391767 297 30ft 10kts
22-Dec-16 16:38 37.622625 -122.389295 92 28ft 16kts
22-Dec-16 16:39 37.620435 -122.383865 117 30ft 19kts
22-Dec-16 16:40 37.616691 -122.379622 202 29ft 20kts
22-Dec-16 16:41 37.611536 -122.383014 208 30ft 20kts
22-Dec-16 16:42 37.608970 -122.383254 122 30ft 9kts
22-Dec-16 16:43 37.614069 -122.378832 27 28ft 102kts
22-Dec-16 16:44 37.654012 -122.356262 352 1651ft 175kts
22-Dec-16 16:45 37.705052 -122.366955 327 3888ft 209kts
22-Dec-16 16:46 37.698171 -122.425540 217 6569ft 235kts
22-Dec-16 16:47 37.637917 -122.476539 218 8743ft 281kts
22-Dec-16 16:48 37.570393 -122.536245 218 10782ft 330kts
22-Dec-16 16:49 37.494027 -122.603839 219 13635ft 345kts
22-Dec-16 16:50 37.412219 -122.670331 197 16321ft 370kts
22-Dec-16 16:51 37.307543 -122.652609 172 18677ft 398kts
22-Dec-16 16:52 37.197863 -122.626320 172 19092ft 403kts
22-Dec-16 16:53 37.088224 -122.600417 172 19984ft 408kts
22-Dec-16 16:54 36.974481 -122.573633 172 22012ft 426kts
22-Dec-16 16:55 36.857432 -122.543362 171 23917ft 441kts
22-Dec-16 16:56 36.737120 -122.512091 171 25657ft 454kts
22-Dec-16 16:57 36.612694 -122.479887 171 27271ft 467kts
22-Dec-16 16:58 36.485313 -122.447003 172 29246ft 465kts
22-Dec-16 16:59 36.375512 -122.376905 120 31180ft 466kts
22-Dec-16 17:00 36.308716 -122.264506 130 32368ft 469kts
22-Dec-16 17:01 36.224865 -122.142489 130 33646ft 470kts
22-Dec-16 17:02 36.140907 -122.020615 130 34889ft 468kts
22-Dec-16 17:03 36.057051 -121.899312 130 35986ft 466kts
22-Dec-16 17:04 35.974602 -121.780484 130 36861ft 467kts
22-Dec-16 17:05 35.893052 -121.663365 130 37066ft 475kts
22-Dec-16 17:06 35.822326 -121.562116 130 37043ft 471kts
22-Dec-16 17:07 35.727957 -121.427483 130 37049ft 472kts
22-Dec-16 17:08 35.665791 -121.339090 131 37041ft 472kts
22-Dec-16 17:09 35.629393 -121.287432 131 37044ft 472kts
22-Dec-16 17:10 35.544361 -121.167076 131 37049ft 472kts
22-Dec-16 17:11 35.461126 -121.046348 127 37037ft 466kts
22-Dec-16 17:12 35.389371 -120.922082 124 37024ft 463kts
22-Dec-16 17:13 35.316418 -120.793096 124 37018ft 464kts
22-Dec-16 17:14 35.243038 -120.663943 124 37019ft 464kts
22-Dec-16 17:15 35.169825 -120.535554 124 37019ft 464kts
22-Dec-16 17:16 35.097206 -120.408665 124 37030ft 464kts
22-Dec-16 17:17 35.034403 -120.299302 124 37036ft 464kts
22-Dec-16 17:18 34.961115 -120.172107 124 37037ft 463kts
22-Dec-16 17:19 34.891163 -120.051122 124 37026ft 461kts
22-Dec-16 17:20 34.829367 -119.944586 124 37025ft 461kts
22-Dec-16 17:21 34.756033 -119.818576 123 37025ft 462kts
22-Dec-16 17:22 34.682445 -119.692577 124 37018ft 461kts
22-Dec-16 17:23 34.613981 -119.575752 124 37019ft 461kts
22-Dec-16 17:24 34.540514 -119.450812 124 37019ft 462kts
22-Dec-16 17:25 34.474547 -119.338997 124 37016ft 461kts
22-Dec-16 17:26 34.442866 -119.285423 124 37017ft 461kts
22-Dec-16 17:27 34.373439 -119.168300 124 37016ft 462kts
22-Dec-16 17:28 34.299857 -119.044579 124 36900ft 465kts
22-Dec-16 17:29 34.224433 -118.918207 125 34629ft 462kts
22-Dec-16 17:30 34.150324 -118.794473 125 31962ft 462kts
22-Dec-16 17:31 34.079002 -118.675785 125 29321ft 460kts
22-Dec-16 17:32 34.005135 -118.555128 125 26593ft 456kts
22-Dec-16 17:33 33.935054 -118.437581 124 24230ft 441kts
22-Dec-16 17:34 33.870350 -118.351593 132 24058ft 440kts
22-Dec-16 17:35 33.828596 -118.298165 132 24027ft 437kts
22-Dec-16 17:36 33.756378 -118.205673 132 24032ft 438kts
22-Dec-16 17:37 33.683152 -118.112124 132 24034ft 437kts
22-Dec-16 17:38 33.609566 -118.018366 132 24033ft 437kts
22-Dec-16 17:39 33.534619 -117.923130 132 24024ft 438kts
22-Dec-16 17:40 33.459242 -117.827608 132 24005ft 438kts
22-Dec-16 17:41 33.384421 -117.735304 133 22243ft 429kts
22-Dec-16 17:42 33.312756 -117.645298 132 19999ft 422kts
22-Dec-16 17:43 33.241683 -117.560665 143 17541ft 406kts
22-Dec-16 17:44 33.162538 -117.491796 142 15062ft 391kts
22-Dec-16 17:45 33.083026 -117.423758 152 12730ft 372kts
22-Dec-16 17:46 32.996607 -117.422139 191 10650ft 346kts
22-Dec-16 17:47 32.914790 -117.441437 201 9902ft 284kts
22-Dec-16 17:48 32.859255 -117.486394 231 8581ft 258kts
22-Dec-16 17:49 32.816169 -117.545838 230 7102ft 250kts
22-Dec-16 17:50 32.768048 -117.594068 181 5577ft 249kts
22-Dec-16 17:51 32.750050 -117.532019 52 4075ft 264kts
22-Dec-16 17:52 32.782505 -117.463205 81 3044ft 241kts
22-Dec-16 17:53 32.783562 -117.392719 110 2565ft 199kts
22-Dec-16 17:54 32.769553 -117.338152 110 1927ft 179kts
22-Dec-16 17:55 32.756716 -117.285231 110 1556ft 166kts
22-Dec-16 17:56 32.745776 -117.240125 111 735ft 135kts
22-Dec-16 17:57 32.735520 -117.197625 109 17ft 128kts
22-Dec-16 17:58 32.730771 -117.181168 195 17ft 7kts
22-Dec-16 17:59 32.730861 -117.182828 284 17ft 12kts
22-Dec-16 18:00 32.732204 -117.188340 285 18ft 19kts
22-Dec-16 18:01 32.733709 -117.194589 286 20ft 21kts
22-Dec-16 18:02 32.735130 -117.200404 286 17ft 17kts
22-Dec-16 18:03 32.735161 -117.203849 283 17ft 12kts
22-Dec-16 18:04 32.733393 -117.205162 120 17ft 4kts
22-Dec-16 18:05 32.733388 -117.204614 80 17ft 0kts
22-Dec-16 18:06 32.733388 -117.204614 80 17ft 0kts
22-Dec-16 18:07 32.733388 -117.204614 81 17ft 0kts
22-Dec-16 18:08 32.733388 -117.204614 81 17ft 0kts
22-Dec-16 18:09 32.733388 -117.204614 81 17ft 0kts
22-Dec-16 18:10 32.733388 -117.204614 81 17ft 0kts
22-Dec-16 18:11 32.733388 -117.204614 80 17ft 0kts
22-Dec-16 18:12 32.733388 -117.204614 81 17ft 0kts

Navigation Log

Ident Type
Flight plan parsing failed, navigation log unavailable